Time;durP1;ratioP1;P1;durP2;ratioP2;P2;SDS_P1;SDS_P2;PMS_P1;PMS_P2;Temp;Humidity;BMP_temperature;BMP_pressure;BME280_temperature;BME280_humidity;BME280_pressure;Samples;Min_cycle;Max_cycle;Signal;HPM_P1;HPM_P2
2022/02/19 00:00:50;;;;;;;16.25;3.00;;;;;;;3.19;76.12;98536.81;5033244;28;20041;-55
2022/02/19 00:03:16;;;;;;;16.63;2.92;;;;;;;3.13;76.42;98535.03;5034209;28;20033;-55
2022/02/19 00:05:42;;;;;;;11.25;2.65;;;;;;;3.23;74.72;98535.38;5034279;28;20045;-54
2022/02/19 00:08:08;;;;;;;21.02;3.22;;;;;;;3.32;74.18;98543.91;5035002;28;20029;-54
2022/02/19 00:10:34;;;;;;;8.00;1.75;;;;;;;3.37;73.23;98559.97;5026706;28;20403;-57
2022/02/19 00:12:59;;;;;;;23.20;3.67;;;;;;;3.33;73.53;98560.63;5027673;28;20029;-55
2022/02/19 00:15:25;;;;;;;18.98;2.78;;;;;;;3.48;71.78;98560.34;5031507;28;20049;-55
2022/02/19 00:17:50;;;;;;;15.25;3.58;;;;;;;3.53;71.39;98582.50;5036693;28;20479;-55
2022/02/19 00:20:16;;;;;;;16.10;2.15;;;;;;;3.55;70.94;98577.00;5034492;28;20043;-54
2022/02/19 00:22:41;;;;;;;11.35;2.75;;;;;;;3.45;71.23;98585.41;5030325;28;20030;-54
2022/02/19 00:25:08;;;;;;;11.45;2.50;;;;;;;3.50;69.73;98575.00;5032173;28;20036;-54
2022/02/19 00:27:34;;;;;;;13.25;3.20;;;;;;;3.54;68.69;98581.47;5032295;28;20014;-56
2022/02/19 00:29:59;;;;;;;21.63;2.60;;;;;;;3.53;68.26;98577.22;5034499;28;20508;-54
2022/02/19 00:32:25;;;;;;;12.32;2.00;;;;;;;3.56;68.35;98576.78;5037780;28;20500;-55
2022/02/19 00:34:51;;;;;;;17.08;2.30;;;;;;;3.44;68.81;98597.84;5032936;28;20033;-55
2022/02/19 00:37:17;;;;;;;10.90;2.70;;;;;;;3.49;68.89;98602.50;5033287;28;20045;-55
2022/02/19 00:39:42;;;;;;;14.93;2.60;;;;;;;3.48;69.07;98587.63;5029520;28;20121;-55
2022/02/19 00:42:07;;;;;;;14.00;2.60;;;;;;;3.50;68.07;98572.34;5031561;28;20103;-56
2022/02/19 00:44:33;;;;;;;18.88;3.55;;;;;;;3.40;68.97;98590.53;5036026;28;20049;-55
2022/02/19 00:46:59;;;;;;;21.88;3.28;;;;;;;3.48;68.11;98587.63;5032647;28;20095;-54
2022/02/19 00:49:25;;;;;;;19.20;3.72;;;;;;;3.50;68.45;98585.59;5041337;28;20031;-56
2022/02/19 00:51:50;;;;;;;16.63;3.13;;;;;;;3.56;68.35;98584.72;5037592;28;20057;-55
2022/02/19 00:54:15;;;;;;;16.95;3.22;;;;;;;3.67;68.57;98604.47;5036725;28;20034;-55
2022/02/19 00:56:41;;;;;;;18.38;2.53;;;;;;;3.63;68.15;98592.66;5037354;28;20049;-56
2022/02/19 00:59:06;;;;;;;23.35;2.58;;;;;;;3.72;68.33;98590.53;5038593;28;20536;-55
2022/02/19 01:01:32;;;;;;;27.95;2.45;;;;;;;3.88;67.49;98590.03;5040873;28;20037;-55
2022/02/19 01:03:57;;;;;;;19.88;2.60;;;;;;;3.87;67.17;98594.53;5031119;28;20033;-56
2022/02/19 01:06:23;;;;;;;19.90;2.85;;;;;;;3.79;68.37;98607.22;5032926;28;20037;-55
2022/02/19 01:08:51;;;;;;;17.65;2.60;;;;;;;3.86;67.45;98602.69;5033661;28;20037;-55
2022/02/19 01:11:17;;;;;;;14.13;2.92;;;;;;;3.93;66.55;98618.56;5032453;28;20503;-55
2022/02/19 01:13:43;;;;;;;10.98;2.33;;;;;;;3.91;67.74;98613.47;5036397;28;20064;-55
2022/02/19 01:16:09;;;;;;;22.75;3.30;;;;;;;3.76;68.37;98626.22;5039061;28;20424;-54
2022/02/19 01:18:34;;;;;;;31.63;3.55;;;;;;;3.70;68.56;98617.28;5030614;28;20496;-55
2022/02/19 01:20:59;;;;;;;14.93;2.47;;;;;;;3.83;68.83;98621.69;5029847;28;20049;-56
2022/02/19 01:23:25;;;;;;;9.93;2.28;;;;;;;3.87;68.11;98625.53;5030231;28;20033;-56
2022/02/19 01:25:50;;;;;;;8.57;1.88;;;;;;;3.91;68.12;98621.41;5028043;28;20511;-56
2022/02/19 01:28:16;;;;;;;24.15;2.85;;;;;;;3.82;68.88;98628.00;5029903;28;20083;-55
2022/02/19 01:30:41;;;;;;;21.52;3.58;;;;;;;3.85;69.05;98620.44;5040042;28;20494;-54
2022/02/19 01:33:07;;;;;;;16.45;3.22;;;;;;;3.81;69.06;98634.34;5033693;28;20148;-56
2022/02/19 01:35:32;;;;;;;23.08;2.63;;;;;;;3.89;68.47;98628.78;5033319;28;20076;-55
2022/02/19 01:37:57;;;;;;;15.15;2.65;;;;;;;4.03;67.36;98635.63;5033782;28;20030;-54
2022/02/19 01:40:23;;;;;;;15.80;2.75;;;;;;;3.99;67.79;98652.16;5030725;28;20044;-55
2022/02/19 01:42:48;;;;;;;18.48;2.95;;;;;;;3.98;67.00;98645.25;5037417;28;20827;-55
2022/02/19 01:45:14;;;;;;;15.13;2.80;;;;;;;3.97;66.88;98655.06;5035366;28;20032;-55
2022/02/19 01:47:40;;;;;;;29.55;3.50;;;;;;;3.78;67.82;98648.03;5039956;28;20032;-55
2022/02/19 01:50:09;;;;;;;15.05;2.95;;;;;;;3.89;64.57;98640.22;5034368;28;20340;-55
2022/02/19 01:52:36;;;;;;;12.20;2.50;;;;;;;3.88;64.41;98649.19;5029107;28;20028;-55
2022/02/19 01:55:01;;;;;;;14.63;2.67;;;;;;;3.82;63.92;98659.81;5032072;28;20340;-55
2022/02/19 01:57:27;;;;;;;11.68;2.40;;;;;;;3.90;63.42;98646.31;5029398;28;20029;-55
2022/02/19 01:59:52;;;;;;;13.30;2.20;;;;;;;3.88;63.92;98654.47;5037425;28;20044;-55
2022/02/19 02:02:18;;;;;;;12.65;2.45;;;;;;;3.87;64.42;98654.72;5027878;28;20045;-55
2022/02/19 02:04:43;;;;;;;11.65;2.45;;;;;;;3.91;64.62;98678.94;5034257;28;20029;-55
2022/02/19 02:07:08;;;;;;;9.45;1.80;;;;;;;3.57;72.16;98687.06;5029834;28;20049;-55
2022/02/19 02:09:37;;;;;;;19.30;2.63;;;;;;;3.17;77.04;98707.53;5034249;28;20029;-56
2022/02/19 02:12:03;;;;;;;16.52;2.42;;;;;;;2.92;79.09;98681.75;5033745;28;20083;-56
2022/02/19 02:14:29;;;;;;;10.75;2.45;;;;;;;2.80;78.93;98684.19;5036358;28;20029;-54
2022/02/19 02:16:54;;;;;;;11.70;2.15;;;;;;;2.85;77.49;98686.25;5029705;28;20034;-55
2022/02/19 02:19:20;;;;;;;15.48;2.05;;;;;;;2.73;78.57;98688.69;5029716;28;20021;-54
2022/02/19 02:21:45;;;;;;;15.10;2.10;;;;;;;2.67;78.23;98678.94;5033446;28;20503;-55
2022/02/19 02:24:10;;;;;;;9.32;2.25;;;;;;;2.74;76.40;98679.72;5036106;28;20025;-54
2022/02/19 02:26:37;;;;;;;16.73;2.50;;;;;;;3.00;73.55;98694.75;5029113;28;20057;-55
2022/02/19 02:29:02;;;;;;;16.10;2.53;;;;;;;2.95;75.39;98691.13;5012162;28;20041;-56
2022/02/19 02:31:27;;;;;;;13.32;1.90;;;;;;;2.98;74.19;98691.50;5035704;28;20110;-55
2022/02/19 02:33:53;;;;;;;13.25;2.17;;;;;;;2.87;74.67;98700.09;5039903;28;20025;-55
2022/02/19 02:36:18;;;;;;;20.42;2.25;;;;;;;2.81;74.71;98696.41;5030336;28;20399;-56
2022/02/19 02:38:44;;;;;;;15.38;1.70;;;;;;;2.96;72.92;98700.66;5030676;28;20123;-55
2022/02/19 02:41:10;;;;;;;20.23;2.70;;;;;;;2.89;73.33;98694.56;5029963;28;20025;-54
2022/02/19 02:43:35;;;;;;;6.18;1.75;;;;;;;2.97;71.82;98699.63;5033693;28;20056;-54
2022/02/19 02:46:01;;;;;;;19.77;2.20;;;;;;;3.06;71.26;98708.19;5031753;28;20045;-55
2022/02/19 02:48:26;;;;;;;9.88;2.08;;;;;;;3.00;70.46;98700.06;5034834;28;20033;-55
2022/02/19 02:50:52;;;;;;;13.85;2.42;;;;;;;2.99;70.96;98702.91;5032697;28;20124;-55
2022/02/19 02:53:17;;;;;;;9.88;1.92;;;;;;;3.09;69.23;98703.28;5029568;28;20026;-55
2022/02/19 02:55:43;;;;;;;6.07;1.42;;;;;;;3.07;69.07;98700.06;5028785;28;20064;-55
2022/02/19 02:58:08;;;;;;;13.48;2.28;;;;;;;3.06;68.80;98701.06;5031564;28;20065;-55
2022/02/19 03:00:34;;;;;;;7.55;1.90;;;;;;;3.05;68.93;98722.47;5032048;28;20449;-54
2022/02/19 03:02:59;;;;;;;12.18;2.20;;;;;;;2.91;70.24;98716.34;5032414;28;20025;-55
2022/02/19 03:05:25;;;;;;;11.00;1.75;;;;;;;2.88;70.63;98717.59;5036281;28;20045;-55
2022/02/19 03:07:50;;;;;;;12.13;2.70;;;;;;;2.88;70.84;98732.66;5035833;28;20471;-55
2022/02/19 03:10:17;;;;;;;8.38;1.65;;;;;;;2.84;72.92;98721.66;5028523;28;20216;-55
2022/02/19 03:12:45;;;;;;;10.35;2.10;;;;;;;2.76;73.60;98735.91;5034712;28;20025;-54
2022/02/19 03:15:11;;;;;;;11.23;2.00;;;;;;;2.67;73.65;98739.78;5030833;28;20041;-55
2022/02/19 03:17:37;;;;;;;7.18;1.77;;;;;;;2.74;73.39;98743.22;5034685;28;20040;-55
2022/02/19 03:20:04;;;;;;;7.63;1.75;;;;;;;2.63;73.96;98741.22;5030222;28;20037;-55
2022/02/19 03:22:29;;;;;;;8.43;2.50;;;;;;;2.80;72.68;98739.78;5034010;28;20029;-54
2022/02/19 03:24:55;;;;;;;6.63;2.05;;;;;;;2.72;72.82;98747.94;5034703;28;20046;-56
2022/02/19 03:27:22;;;;;;;9.32;1.50;;;;;;;2.74;72.79;98730.00;5036483;28;20037;-56
2022/02/19 03:29:47;;;;;;;5.82;2.00;;;;;;;2.65;73.25;98743.66;5028769;28;20436;-56
2022/02/19 03:32:12;;;;;;;7.68;1.80;;;;;;;2.69;72.49;98756.25;5028146;28;20052;-55
2022/02/19 03:34:38;;;;;;;14.10;1.80;;;;;;;2.64;72.68;98748.13;5035256;28;20036;-54
2022/02/19 03:37:04;;;;;;;9.15;2.80;;;;;;;2.68;72.04;98765.22;5034307;28;20038;-55
2022/02/19 03:39:29;;;;;;;9.07;1.60;;;;;;;2.59;71.81;98761.13;5033565;28;20034;-55
2022/02/19 03:41:55;;;;;;;13.25;2.45;;;;;;;2.59;72.11;98761.94;5029145;28;20367;-56
2022/02/19 03:44:20;;;;;;;11.20;2.33;;;;;;;2.58;72.62;98780.69;5040586;28;20049;-55
2022/02/19 03:46:45;;;;;;;13.90;2.28;;;;;;;2.65;72.18;98788.63;5033990;28;20037;-55
2022/02/19 03:49:11;;;;;;;13.20;2.65;;;;;;;2.70;71.63;98792.31;5010612;28;20037;-55
2022/02/19 03:51:36;;;;;;;12.25;2.28;;;;;;;2.62;72.34;98805.75;5033341;28;20048;-55
2022/02/19 03:54:02;;;;;;;24.60;2.75;;;;;;;2.66;72.50;98798.19;5037298;28;20021;-56
2022/02/19 03:56:27;;;;;;;13.68;2.45;;;;;;;2.65;73.10;98807.16;5030474;28;20049;-56
2022/02/19 03:58:53;;;;;;;10.98;2.45;;;;;;;2.62;72.87;98821.63;5033212;28;20079;-56
2022/02/19 04:01:18;;;;;;;10.55;2.28;;;;;;;2.61;72.85;98824.44;5030830;28;20106;-55
2022/02/19 04:03:43;;;;;;;13.90;2.17;;;;;;;2.63;73.05;98836.47;5030233;28;20025;-55
2022/02/19 04:06:09;;;;;;;11.43;2.03;;;;;;;2.65;72.38;98834.44;5034478;28;20050;-56
2022/02/19 04:08:34;;;;;;;7.00;1.77;;;;;;;2.67;72.15;98837.69;5032265;28;20036;-55
2022/02/19 04:11:00;;;;;;;13.75;2.00;;;;;;;2.64;72.18;98848.66;5042393;28;20041;-55
2022/02/19 04:13:25;;;;;;;13.63;2.15;;;;;;;2.64;71.72;98848.66;5041041;28;20040;-55
2022/02/19 04:15:50;;;;;;;13.40;2.20;;;;;;;2.63;71.33;98854.19;5035134;28;20036;-55
2022/02/19 04:18:16;;;;;;;19.75;2.28;;;;;;;2.63;71.52;98862.91;5032297;28;20029;-54
2022/02/19 04:20:42;;;;;;;15.60;2.90;;;;;;;2.70;70.96;98860.31;5031773;28;20041;-55
2022/02/19 04:23:07;;;;;;;19.25;2.92;;;;;;;2.69;70.20;98856.81;5035297;28;20048;-55
2022/02/19 04:25:33;;;;;;;13.75;2.53;;;;;;;2.81;69.59;98867.63;5031223;28;20427;-54
2022/02/19 04:28:08;;;;;;;15.70;2.33;;;;;;;2.72;69.75;98882.91;5032249;28;20033;-55
2022/02/19 04:30:34;;;;;;;11.68;2.08;;;;;;;2.67;69.54;98884.50;5039529;28;20049;-56
2022/02/19 04:32:59;;;;;;;12.68;2.67;;;;;;;2.77;68.71;98891.06;5035645;28;20034;-55
2022/02/19 04:35:25;;;;;;;11.05;2.38;;;;;;;2.89;67.72;98899.19;5038513;28;20041;-54
2022/02/19 04:37:51;;;;;;;8.65;2.15;;;;;;;2.86;67.48;98896.16;5034235;28;20045;-55
2022/02/19 04:40:16;;;;;;;14.65;2.67;;;;;;;2.89;67.16;98904.50;5031691;28;20029;-55
2022/02/19 04:42:43;;;;;;;16.70;2.30;;;;;;;2.78;67.53;98919.16;5032087;28;20021;-55
2022/02/19 04:45:09;;;;;;;22.50;2.95;;;;;;;2.73;68.04;98921.56;5034269;28;20046;-55
2022/02/19 04:47:35;;;;;;;18.13;2.53;;;;;;;2.73;67.37;98934.00;5033455;28;20506;-55
2022/02/19 04:50:00;;;;;;;13.50;2.95;;;;;;;2.67;67.89;98937.41;5039074;28;20045;-56
2022/02/19 04:52:26;;;;;;;20.30;2.40;;;;;;;2.74;67.58;98944.38;5040383;28;20044;-56
2022/02/19 04:54:51;;;;;;;13.35;2.42;;;;;;;2.68;67.47;98950.47;5031958;28;20040;-56
2022/02/19 04:57:16;;;;;;;15.60;2.80;;;;;;;2.64;67.80;98951.06;5035025;28;20045;-55
2022/02/19 04:59:42;;;;;;;11.57;2.05;;;;;;;2.56;68.18;98963.44;5037532;28;20029;-56
2022/02/19 05:02:07;;;;;;;20.13;2.95;;;;;;;2.56;68.07;98965.28;5034941;28;20037;-54
2022/02/19 05:04:33;;;;;;;17.95;2.60;;;;;;;2.54;68.45;98985.81;5035660;28;20534;-54
2022/02/19 05:06:58;;;;;;;15.95;2.80;;;;;;;2.65;67.10;98971.22;5030936;28;20606;-56
2022/02/19 05:09:24;;;;;;;11.13;2.42;;;;;;;2.57;68.53;98988.91;5030900;28;20025;-56
2022/02/19 05:11:49;;;;;;;16.30;2.88;;;;;;;2.42;68.43;98997.97;5034279;28;20041;-55
2022/02/19 05:14:14;;;;;;;19.35;2.78;;;;;;;2.37;68.59;99002.03;5031301;28;20041;-56
2022/02/19 05:16:40;;;;;;;14.68;2.75;;;;;;;2.36;69.31;99012.78;5034361;28;20045;-55
2022/02/19 05:19:05;;;;;;;20.52;3.30;;;;;;;2.41;68.07;99018.31;5036912;28;20453;-55
2022/02/19 05:21:31;;;;;;;20.85;2.92;;;;;;;2.47;67.78;99016.69;5029284;28;20037;-56
2022/02/19 05:23:56;;;;;;;13.60;2.70;;;;;;;2.31;68.59;99031.06;5030971;28;20052;-55
2022/02/19 05:26:21;;;;;;;11.18;2.22;;;;;;;2.25;69.00;99035.31;5036028;28;20666;-55
2022/02/19 05:28:47;;;;;;;12.25;2.90;;;;;;;2.33;68.07;99047.56;5034737;28;20033;-55
2022/02/19 05:31:12;;;;;;;12.07;2.22;;;;;;;2.42;67.56;99045.56;5033412;28;20389;-55
2022/02/19 05:33:38;;;;;;;20.90;2.75;;;;;;;2.35;67.74;99043.72;5041421;28;20375;-55
2022/02/19 05:36:04;;;;;;;16.50;2.63;;;;;;;2.40;67.85;99048.44;5037788;28;20515;-56
2022/02/19 05:38:29;;;;;;;11.25;2.40;;;;;;;2.34;67.76;99050.00;5032499;28;20029;-55
2022/02/19 05:40:54;;;;;;;10.70;2.78;;;;;;;2.32;67.54;99049.41;5031673;28;20491;-55
2022/02/19 05:43:20;;;;;;;15.27;2.67;;;;;;;2.25;67.89;99053.81;5032709;28;20090;-54
2022/02/19 05:45:47;;;;;;;15.15;2.40;;;;;;;2.19;67.88;99057.22;5029642;28;20045;-55
2022/02/19 05:48:13;;;;;;;12.38;2.20;;;;;;;2.17;67.99;99059.22;5030380;28;20077;-54
2022/02/19 05:50:38;;;;;;;9.50;2.13;;;;;;;2.15;68.61;99071.84;5032010;28;20056;-55
2022/02/19 05:53:04;;;;;;;10.52;2.08;;;;;;;2.13;68.42;99079.97;5030640;28;20087;-55
2022/02/19 05:55:33;;;;;;;11.52;2.13;;;;;;;2.34;66.55;99073.81;5036737;28;20041;-55
2022/02/19 05:57:58;;;;;;;15.15;2.40;;;;;;;2.17;67.53;99085.69;5035301;28;20120;-55
2022/02/19 06:00:25;;;;;;;9.65;2.22;;;;;;;2.04;68.01;99081.09;5035655;28;20052;-55
2022/02/19 06:02:50;;;;;;;15.73;2.53;;;;;;;2.07;68.26;99095.75;5033353;28;20017;-56
2022/02/19 06:05:16;;;;;;;12.00;2.40;;;;;;;2.00;68.80;99089.59;5028938;28;20107;-56
2022/02/19 06:07:41;;;;;;;22.65;3.90;;;;;;;2.15;67.50;99095.66;5037168;28;20057;-55
2022/02/19 06:10:08;;;;;;;14.10;2.88;;;;;;;2.07;67.88;99096.59;5032699;28;20033;-55
2022/02/19 06:12:33;;;;;;;11.73;2.28;;;;;;;2.07;67.62;99090.47;5033861;28;20072;-55
2022/02/19 06:14:58;;;;;;;18.27;2.70;;;;;;;2.02;67.86;99087.59;5031503;28;20421;-54
2022/02/19 06:17:24;;;;;;;12.00;2.50;;;;;;;1.99;68.06;99093.25;5034902;28;20037;-55
2022/02/19 06:19:49;;;;;;;13.75;2.47;;;;;;;1.86;68.68;99105.34;5039265;28;20033;-55
2022/02/19 06:22:15;;;;;;;21.90;2.55;;;;;;;2.09;67.54;99105.13;5029029;28;20038;-56
2022/02/19 06:24:41;;;;;;;14.43;2.22;;;;;;;2.08;67.38;99102.72;5029440;28;20033;-55
2022/02/19 06:27:06;;;;;;;16.98;2.50;;;;;;;2.07;67.15;99096.59;5030887;28;20156;-54
2022/02/19 06:29:31;;;;;;;27.00;2.95;;;;;;;2.01;67.43;99112.41;5036361;28;20136;-56
2022/02/19 06:31:57;;;;;;;23.88;3.63;;;;;;;1.98;67.90;99118.06;5031190;28;20045;-55
2022/02/19 06:34:22;;;;;;;9.32;1.90;;;;;;;1.99;67.63;99120.50;5028299;28;20431;-56
2022/02/19 06:36:48;;;;;;;17.13;2.67;;;;;;;2.15;68.82;99122.91;5029391;28;20079;-55
2022/02/19 06:39:13;;;;;;;14.63;2.65;;;;;;;2.18;66.94;99132.28;5037813;28;20041;-55
2022/02/19 06:41:39;;;;;;;10.05;2.10;;;;;;;2.10;67.50;99127.94;5027857;28;20479;-55
2022/02/19 06:44:04;;;;;;;16.98;2.63;;;;;;;2.08;67.36;99129.97;5030788;28;20045;-55
2022/02/19 06:46:29;;;;;;;11.10;2.25;;;;;;;2.14;68.07;99141.59;5030620;28;20045;-55
2022/02/19 06:48:55;;;;;;;18.65;2.47;;;;;;;2.24;66.97;99159.78;5032210;28;20040;-54
2022/02/19 06:51:20;;;;;;;17.00;2.40;;;;;;;2.23;67.48;99155.50;5023357;28;20041;-55
2022/02/19 06:53:46;;;;;;;15.45;3.05;;;;;;;2.17;67.64;99159.72;5033902;28;20022;-55
2022/02/19 06:56:11;;;;;;;14.75;2.60;;;;;;;2.21;67.79;99165.47;5035382;28;20037;-55
2022/02/19 06:58:36;;;;;;;16.00;2.78;;;;;;;2.34;67.08;99169.03;5034895;28;20040;-54
2022/02/19 07:01:02;;;;;;;11.93;2.28;;;;;;;2.52;67.39;99162.44;5029142;28;20052;-55
2022/02/19 07:03:27;;;;;;;15.10;2.80;;;;;;;2.44;66.97;99175.81;5033633;28;20281;-55
2022/02/19 07:05:54;;;;;;;22.00;3.03;;;;;;;2.39;67.00;99184.31;5027233;28;20060;-55
2022/02/19 07:08:22;;;;;;;20.88;2.88;;;;;;;2.47;67.15;99178.06;5033451;28;20079;-54
2022/02/19 07:10:48;;;;;;;12.35;2.10;;;;;;;2.51;66.80;99176.69;5028011;28;20060;-55
2022/02/19 07:13:13;;;;;;;13.18;2.40;;;;;;;2.51;66.87;99188.09;5035865;28;20025;-54
2022/02/19 07:15:39;;;;;;;24.00;2.65;;;;;;;3.21;64.97;99194.28;5029934;28;20071;-55
2022/02/19 07:18:05;;;;;;;13.18;2.92;;;;;;;3.83;63.06;99197.00;5027332;28;20063;-55
2022/02/19 07:20:33;;;;;;;19.63;2.63;;;;;;;4.09;61.59;99204.19;5031574;28;20037;-54
2022/02/19 07:22:59;;;;;;;21.10;3.03;;;;;;;3.94;61.62;99195.59;5039059;28;20032;-54
2022/02/19 07:25:24;;;;;;;18.20;2.78;;;;;;;4.25;60.28;99205.66;5027997;28;20045;-55
2022/02/19 07:27:50;;;;;;;12.60;2.38;;;;;;;4.47;59.98;99215.06;5037358;28;20621;-54
2022/02/19 07:30:19;;;;;;;16.25;2.50;;;;;;;4.71;59.32;99218.13;5030264;28;20030;-55
2022/02/19 07:32:47;;;;;;;20.77;3.07;;;;;;;4.66;59.09;99210.78;5034271;28;20032;-55
2022/02/19 07:35:13;;;;;;;13.90;3.40;;;;;;;4.57;59.49;99220.00;5033867;28;20041;-55
2022/02/19 07:37:39;;;;;;;17.33;2.63;;;;;;;4.53;59.16;99224.06;5027326;28;20535;-54
2022/02/19 07:40:05;;;;;;;21.33;2.90;;;;;;;4.85;58.94;99227.75;5034445;28;20048;-54
2022/02/19 07:42:31;;;;;;;16.15;2.75;;;;;;;5.19;57.21;99229.34;5039448;28;20029;-55
2022/02/19 07:44:56;;;;;;;18.02;2.50;;;;;;;5.54;57.33;99230.88;5034178;28;20083;-55
2022/02/19 07:47:25;;;;;;;14.90;2.38;;;;;;;5.54;56.96;99249.47;5029421;28;20057;-55
2022/02/19 07:58:18;;;;;;;20.08;3.22;;;;;;;5.19;56.96;99274.50;5032510;28;20510;-55
2022/02/19 08:00:44;;;;;;;;;;;;;;;4.91;58.12;99279.22;5032398;28;20103;-54
2022/02/19 08:03:10;;;;;;;18.48;2.90;;;;;;;6.05;55.57;99281.44;5030075;28;19921;-51
2022/02/19 08:05:36;;;;;;;15.05;2.42;;;;;;;5.30;57.08;99288.19;5036457;28;20045;-55
2022/02/19 08:08:01;;;;;;;17.75;2.22;;;;;;;5.43;57.07;99298.00;5042312;28;20033;-55
2022/02/19 08:10:26;;;;;;;20.23;3.20;;;;;;;5.44;56.99;99311.06;5036690;28;20557;-55
2022/02/19 08:12:52;;;;;;;19.70;2.58;;;;;;;5.68;56.54;99295.47;5038123;28;20044;-55
2022/02/19 08:15:17;;;;;;;15.00;2.75;;;;;;;6.37;54.74;99304.66;5040543;28;20566;-56
2022/02/19 08:17:43;;;;;;;15.07;2.55;;;;;;;6.33;54.36;99306.09;5035367;28;20594;-54
2022/02/19 08:20:08;;;;;;;17.75;2.78;;;;;;;6.48;54.06;99309.28;5035319;28;20033;-55
2022/02/19 08:22:34;;;;;;;9.88;2.53;;;;;;;6.61;53.81;99313.72;5038602;28;20029;-55
2022/02/19 08:24:59;;;;;;;16.50;2.40;;;;;;;6.29;54.63;99318.19;5037763;28;20376;-54
2022/02/19 08:27:25;;;;;;;17.88;2.85;;;;;;;6.52;54.09;99326.47;5039298;28;20616;-54
2022/02/19 08:29:50;;;;;;;15.48;2.28;;;;;;;6.75;52.90;99333.91;5032029;28;20144;-54
2022/02/19 08:32:16;;;;;;;21.38;2.75;;;;;;;7.12;52.09;99320.75;5032970;28;20059;-55
2022/02/19 08:34:41;;;;;;;13.48;2.75;;;;;;;7.21;51.25;99337.28;5031212;28;20933;-54
2022/02/19 08:37:07;;;;;;;19.40;2.80;;;;;;;7.11;52.17;99333.25;5035393;28;20449;-54
2022/02/19 08:39:32;;;;;;;17.48;2.50;;;;;;;7.05;51.99;99328.78;5034352;28;20028;-54
2022/02/19 08:41:57;;;;;;;14.70;2.70;;;;;;;6.90;52.05;99333.63;5029166;28;20113;-54
2022/02/19 08:44:23;;;;;;;14.75;3.28;;;;;;;7.62;50.40;99334.03;5031034;28;20041;-54
2022/02/19 08:46:48;;;;;;;18.20;2.53;;;;;;;7.08;51.37;99339.00;5033819;28;20508;-55
2022/02/19 08:49:14;;;;;;;14.73;2.70;;;;;;;7.32;50.70;99347.25;5032713;28;20029;-53
2022/02/19 08:51:39;;;;;;;15.15;2.67;;;;;;;7.07;51.67;99347.25;5030265;28;20088;-55
2022/02/19 08:54:04;;;;;;;15.25;2.50;;;;;;;7.75;49.78;99346.41;5031356;28;20388;-56
2022/02/19 08:56:30;;;;;;;16.13;2.95;;;;;;;7.63;50.38;99359.66;5035893;28;20053;-54
2022/02/19 08:58:55;;;;;;;21.35;2.97;;;;;;;7.66;49.76;99355.75;5035534;28;20033;-55
2022/02/19 09:01:21;;;;;;;15.23;2.95;;;;;;;7.79;49.17;99355.63;5040675;28;20037;-55
2022/02/19 09:03:46;;;;;;;14.40;2.55;;;;;;;8.14;48.70;99363.06;5040363;28;20415;-54
2022/02/19 09:06:12;;;;;;;22.50;2.83;;;;;;;7.73;49.47;99367.16;5034827;28;20041;-55
2022/02/19 09:08:38;;;;;;;15.63;2.90;;;;;;;7.89;49.27;99365.78;5040182;28;20041;-54
2022/02/19 09:11:07;;;;;;;10.40;2.13;;;;;;;7.93;49.22;99366.97;5035041;28;20065;-55
2022/02/19 09:13:33;;;;;;;11.15;2.75;;;;;;;8.25;48.43;99369.50;5032231;28;20649;-55
2022/02/19 09:15:58;;;;;;;12.32;2.60;;;;;;;8.11;48.30;99376.81;5034104;28;20052;-55
2022/02/19 09:18:23;;;;;;;11.60;2.40;;;;;;;8.18;48.16;99370.38;5032856;28;20036;-55
2022/02/19 09:20:49;;;;;;;11.25;2.50;;;;;;;8.26;48.04;99376.44;5035600;28;20041;-53
2022/02/19 09:23:14;;;;;;;20.05;2.83;;;;;;;8.18;48.16;99370.38;5030804;28;20025;-54
2022/02/19 09:25:40;;;;;;;11.77;2.40;;;;;;;8.11;48.08;99377.66;5029834;28;20052;-54
2022/02/19 09:28:05;;;;;;;15.73;2.38;;;;;;;8.18;48.84;99381.06;5040546;28;20021;-54
2022/02/19 09:30:30;;;;;;;13.65;3.15;;;;;;;8.21;48.29;99393.13;5030991;28;20037;-54
2022/02/19 09:32:59;;;;;;;18.40;2.65;;;;;;;8.84;47.21;99383.97;5028646;28;20025;-55
2022/02/19 09:35:25;;;;;;;17.33;3.03;;;;;;;7.70;48.73;99383.63;5036907;28;20047;-54
2022/02/19 09:37:51;;;;;;;10.32;2.13;;;;;;;8.10;48.55;99383.22;5036847;28;20041;-54
2022/02/19 09:40:16;;;;;;;8.73;2.40;;;;;;;7.92;49.06;99376.81;5037325;28;20044;-55
2022/02/19 09:42:42;;;;;;;14.52;2.42;;;;;;;8.14;48.49;99381.75;5035338;28;20040;-54
2022/02/19 09:45:07;;;;;;;13.13;2.13;;;;;;;8.03;49.46;99390.47;5030658;28;20076;-55
2022/02/19 09:47:33;;;;;;;18.92;2.72;;;;;;;8.28;48.58;99388.53;5034273;28;20029;-54
2022/02/19 09:49:59;;;;;;;13.18;2.38;;;;;;;7.97;50.06;99384.19;5039654;28;20286;-55
2022/02/19 09:52:24;;;;;;;17.15;2.53;;;;;;;8.28;47.62;99377.84;5033781;28;20034;-55
2022/02/19 09:54:51;;;;;;;11.68;1.92;;;;;;;8.82;46.51;99375.34;5037719;28;20033;-55
2022/02/19 09:57:16;;;;;;;11.50;2.45;;;;;;;8.95;46.70;99380.50;5012550;28;20033;-54
2022/02/19 09:59:41;;;;;;;12.60;3.03;;;;;;;9.11;46.22;99375.53;5031389;28;20124;-56
2022/02/19 10:02:07;;;;;;;13.20;2.60;;;;;;;9.10;45.65;99388.09;5033681;28;20037;-56
2022/02/19 10:04:33;;;;;;;15.63;2.67;;;;;;;9.32;45.58;99390.25;5033073;28;20549;-54
2022/02/19 10:07:21;;;;;;;14.35;2.00;;;;;;;9.52;45.17;99385.38;5036735;28;20506;-54
2022/02/19 10:09:47;;;;;;;13.65;2.15;;;;;;;8.96;45.16;99390.19;5039441;28;20029;-55
2022/02/19 10:12:14;;;;;;;8.05;2.30;;;;;;;9.29;44.46;99392.34;5026135;28;20499;-56
2022/02/19 10:14:39;;;;;;;13.95;1.75;;;;;;;9.25;45.21;99388.47;5012531;28;20022;-54
2022/02/19 10:17:17;;;;;;;7.18;2.10;;;;;;;8.95;44.83;99390.38;5031594;28;20098;-55
2022/02/19 10:20:02;;;;;;;14.55;2.88;;;;;;;8.14;47.62;99395.09;5035725;28;20030;-54
2022/02/19 10:22:31;;;;;;;11.15;2.22;;;;;;;8.60;46.61;99401.75;5028824;28;20053;-55
2022/02/19 10:25:00;;;;;;;15.40;2.42;;;;;;;8.04;48.00;99400.94;5035825;28;20018;-54
2022/02/19 10:27:41;;;;;;;17.00;2.30;;;;;;;7.58;49.79;99399.53;5031906;28;20081;-53
2022/02/19 10:30:07;;;;;;;19.92;2.45;;;;;;;8.93;47.56;99400.50;5033468;28;20029;-55
2022/02/19 10:32:58;;;;;;;12.43;2.40;;;;;;;8.78;49.61;99388.34;5034973;28;20109;-54
2022/02/19 10:35:35;;;;;;;10.07;2.30;;;;;;;9.13;49.82;99403.69;5028763;28;20083;-54
2022/02/19 10:38:03;;;;;;;10.30;2.10;;;;;;;8.48;51.17;99400.88;5028807;28;20029;-55
2022/02/19 10:40:49;;;;;;;13.65;2.30;;;;;;;8.52;50.84;99410.09;5033428;28;20076;-55
2022/02/19 10:43:17;;;;;;;9.95;2.28;;;;;;;9.12;50.47;99401.25;5028521;28;20034;-55
2022/02/19 10:46:02;;;;;;;16.85;2.38;;;;;;;9.05;49.67;99401.34;5034036;28;20465;-54
2022/02/19 10:48:35;;;;;;;8.52;2.67;;;;;;;9.36;50.48;99407.47;5028917;28;20045;-55
2022/02/19 10:51:13;;;;;;;13.65;2.63;;;;;;;9.25;50.83;99401.84;5035480;28;20048;-55
2022/02/19 10:53:40;;;;;;;12.93;2.70;;;;;;;8.88;51.40;99405.69;5029082;28;20480;-55
2022/02/19 10:56:13;;;;;;;10.50;2.95;;;;;;;8.79;52.65;99399.88;5027900;28;20420;-55
2022/02/19 10:59:00;;;;;;;18.75;2.95;;;;;;;8.37;54.79;99405.91;5030956;28;20034;-54
2022/02/19 11:01:26;;;;;;;18.40;2.80;;;;;;;8.82;55.41;99413.59;5028248;28;20111;-54
2022/02/19 11:03:51;;;;;;;9.35;2.83;;;;;;;8.05;56.92;99407.91;5028370;28;20464;-54
2022/02/19 11:06:17;;;;;;;13.32;2.00;;;;;;;8.25;55.78;99401.53;5032669;28;20486;-55
2022/02/19 11:08:43;;;;;;;11.45;2.10;;;;;;;8.57;54.98;99411.03;5034336;28;20030;-54
2022/02/19 11:11:10;;;;;;;9.73;2.17;;;;;;;8.75;54.84;99396.81;5034225;28;20124;-54
2022/02/19 11:13:36;;;;;;;13.27;2.33;;;;;;;7.82;57.51;99397.88;5031521;28;20025;-55
2022/02/19 11:16:04;;;;;;;13.38;2.30;;;;;;;7.94;57.97;99406.78;5027998;28;20041;-54
2022/02/19 11:18:31;;;;;;;10.40;2.30;;;;;;;7.30;59.87;99400.78;5033740;28;20481;-53
2022/02/19 11:20:57;;;;;;;12.10;2.50;;;;;;;7.47;59.63;99398.38;5034166;28;20361;-55
2022/02/19 11:23:22;;;;;;;11.13;2.90;;;;;;;7.07;61.21;99406.69;5018844;28;20028;-54
2022/02/19 11:25:48;;;;;;;11.57;3.10;;;;;;;6.84;61.48;99395.75;5012536;28;20041;-54
2022/02/19 11:28:13;;;;;;;22.67;3.13;;;;;;;7.34;60.49;99390.50;5009711;28;20413;-54
2022/02/19 11:30:50;;;;;;;15.52;2.70;;;;;;;6.89;61.31;99395.94;5033196;28;20048;-54
2022/02/19 11:33:16;;;;;;;17.63;2.88;;;;;;;6.81;60.16;99389.00;5029722;28;20311;-55
2022/02/19 11:35:42;;;;;;;13.20;2.40;;;;;;;6.41;62.47;99381.19;5014438;28;20083;-55
2022/02/19 11:38:24;;;;;;;14.23;2.17;;;;;;;6.99;58.59;99388.28;5035716;28;20103;-54